sensor_id;sensor_type;location;lat;lon;timestamp;P1;durP1;ratioP1;P2;durP2;ratioP2
16352;SDS011;8286;51.274;9.542;2024-02-14T00:01:18;5.90;;;2.73;;
16352;SDS011;8286;51.274;9.542;2024-02-14T00:03:44;3.97;;;2.93;;
16352;SDS011;8286;51.274;9.542;2024-02-14T00:06:11;7.17;;;2.90;;
16352;SDS011;8286;51.274;9.542;2024-02-14T00:08:38;4.00;;;2.73;;
16352;SDS011;8286;51.274;9.542;2024-02-14T00:11:05;3.10;;;2.50;;
16352;SDS011;8286;51.274;9.542;2024-02-14T00:13:31;3.97;;;2.40;;
16352;SDS011;8286;51.274;9.542;2024-02-14T00:15:59;2.80;;;2.00;;
16352;SDS011;8286;51.274;9.542;2024-02-14T00:18:27;3.37;;;2.20;;
16352;SDS011;8286;51.274;9.542;2024-02-14T00:20:54;3.07;;;2.40;;
16352;SDS011;8286;51.274;9.542;2024-02-14T00:23:21;3.53;;;2.50;;
16352;SDS011;8286;51.274;9.542;2024-02-14T00:25:47;4.20;;;1.70;;
16352;SDS011;8286;51.274;9.542;2024-02-14T00:28:14;2.77;;;1.93;;
16352;SDS011;8286;51.274;9.542;2024-02-14T00:30:40;3.37;;;1.80;;
16352;SDS011;8286;51.274;9.542;2024-02-14T00:33:07;3.90;;;1.73;;
16352;SDS011;8286;51.274;9.542;2024-02-14T00:35:35;5.57;;;1.67;;
16352;SDS011;8286;51.274;9.542;2024-02-14T00:38:01;1.83;;;1.60;;
16352;SDS011;8286;51.274;9.542;2024-02-14T00:40:28;3.33;;;1.60;;
16352;SDS011;8286;51.274;9.542;2024-02-14T00:42:55;1.97;;;1.70;;
16352;SDS011;8286;51.274;9.542;2024-02-14T00:45:22;7.63;;;1.90;;
16352;SDS011;8286;51.274;9.542;2024-02-14T00:47:48;3.00;;;1.50;;
16352;SDS011;8286;51.274;9.542;2024-02-14T00:50:15;5.83;;;1.43;;
16352;SDS011;8286;51.274;9.542;2024-02-14T00:52:43;1.73;;;1.20;;
16352;SDS011;8286;51.274;9.542;2024-02-14T00:55:09;3.57;;;1.37;;
16352;SDS011;8286;51.274;9.542;2024-02-14T00:57:36;2.50;;;1.23;;
16352;SDS011;8286;51.274;9.542;2024-02-14T01:00:03;2.27;;;1.40;;
16352;SDS011;8286;51.274;9.542;2024-02-14T01:02:32;4.60;;;1.67;;
16352;SDS011;8286;51.274;9.542;2024-02-14T01:04:59;1.53;;;1.47;;
16352;SDS011;8286;51.274;9.542;2024-02-14T01:07:25;2.33;;;1.30;;
16352;SDS011;8286;51.274;9.542;2024-02-14T01:09:53;7.20;;;1.43;;
16352;SDS011;8286;51.274;9.542;2024-02-14T01:12:20;3.40;;;1.40;;
16352;SDS011;8286;51.274;9.542;2024-02-14T01:14:46;6.00;;;1.27;;
16352;SDS011;8286;51.274;9.542;2024-02-14T01:17:13;3.10;;;1.13;;
16352;SDS011;8286;51.274;9.542;2024-02-14T01:19:39;1.87;;;1.30;;
16352;SDS011;8286;51.274;9.542;2024-02-14T01:22:06;1.57;;;1.40;;
16352;SDS011;8286;51.274;9.542;2024-02-14T01:24:33;5.57;;;1.63;;
16352;SDS011;8286;51.274;9.542;2024-02-14T01:27:01;1.40;;;1.30;;
16352;SDS011;8286;51.274;9.542;2024-02-14T01:29:29;2.47;;;1.60;;
16352;SDS011;8286;51.274;9.542;2024-02-14T01:31:55;2.10;;;1.20;;
16352;SDS011;8286;51.274;9.542;2024-02-14T01:34:22;1.30;;;1.10;;
16352;SDS011;8286;51.274;9.542;2024-02-14T01:36:49;2.43;;;1.40;;
16352;SDS011;8286;51.274;9.542;2024-02-14T01:39:15;1.67;;;1.30;;
16352;SDS011;8286;51.274;9.542;2024-02-14T01:41:44;2.13;;;1.50;;
16352;SDS011;8286;51.274;9.542;2024-02-14T01:44:14;2.13;;;1.33;;
16352;SDS011;8286;51.274;9.542;2024-02-14T01:46:41;4.37;;;1.47;;
16352;SDS011;8286;51.274;9.542;2024-02-14T01:49:08;2.80;;;1.23;;
16352;SDS011;8286;51.274;9.542;2024-02-14T01:51:36;5.87;;;1.50;;
16352;SDS011;8286;51.274;9.542;2024-02-14T01:54:04;2.00;;;1.20;;
16352;SDS011;8286;51.274;9.542;2024-02-14T01:56:31;1.80;;;1.70;;
16352;SDS011;8286;51.274;9.542;2024-02-14T01:58:59;3.77;;;1.27;;
16352;SDS011;8286;51.274;9.542;2024-02-14T02:01:27;1.43;;;1.30;;
16352;SDS011;8286;51.274;9.542;2024-02-14T02:03:54;2.97;;;1.50;;
16352;SDS011;8286;51.274;9.542;2024-02-14T02:06:21;2.60;;;1.37;;
16352;SDS011;8286;51.274;9.542;2024-02-14T02:08:48;1.90;;;1.20;;
16352;SDS011;8286;51.274;9.542;2024-02-14T02:11:15;3.33;;;1.30;;
16352;SDS011;8286;51.274;9.542;2024-02-14T02:13:41;1.53;;;1.43;;
16352;SDS011;8286;51.274;9.542;2024-02-14T02:16:08;2.67;;;1.30;;
16352;SDS011;8286;51.274;9.542;2024-02-14T02:18:37;1.67;;;1.17;;
16352;SDS011;8286;51.274;9.542;2024-02-14T02:21:04;1.60;;;1.20;;
16352;SDS011;8286;51.274;9.542;2024-02-14T02:23:33;1.93;;;1.23;;
16352;SDS011;8286;51.274;9.542;2024-02-14T02:26:00;1.73;;;1.23;;
16352;SDS011;8286;51.274;9.542;2024-02-14T02:28:26;3.40;;;1.60;;
16352;SDS011;8286;51.274;9.542;2024-02-14T02:30:53;4.63;;;1.53;;
16352;SDS011;8286;51.274;9.542;2024-02-14T02:33:20;4.23;;;2.17;;
16352;SDS011;8286;51.274;9.542;2024-02-14T02:35:47;2.57;;;1.47;;
16352;SDS011;8286;51.274;9.542;2024-02-14T02:38:15;3.70;;;1.07;;
16352;SDS011;8286;51.274;9.542;2024-02-14T02:40:43;2.43;;;1.73;;
16352;SDS011;8286;51.274;9.542;2024-02-14T02:43:09;1.50;;;1.40;;
16352;SDS011;8286;51.274;9.542;2024-02-14T02:45:36;3.37;;;1.30;;
16352;SDS011;8286;51.274;9.542;2024-02-14T02:48:04;3.10;;;1.70;;
16352;SDS011;8286;51.274;9.542;2024-02-14T02:50:31;1.90;;;1.50;;
16352;SDS011;8286;51.274;9.542;2024-02-14T02:52:58;2.90;;;1.40;;
16352;SDS011;8286;51.274;9.542;2024-02-14T02:55:25;4.20;;;1.47;;
16352;SDS011;8286;51.274;9.542;2024-02-14T02:57:53;3.17;;;1.30;;
16352;SDS011;8286;51.274;9.542;2024-02-14T03:00:20;1.57;;;1.20;;
16352;SDS011;8286;51.274;9.542;2024-02-14T03:02:47;3.23;;;1.67;;
16352;SDS011;8286;51.274;9.542;2024-02-14T03:05:14;2.27;;;1.20;;
16352;SDS011;8286;51.274;9.542;2024-02-14T03:07:43;1.70;;;1.30;;
16352;SDS011;8286;51.274;9.542;2024-02-14T03:10:13;2.80;;;1.27;;
16352;SDS011;8286;51.274;9.542;2024-02-14T03:12:42;5.53;;;1.40;;
16352;SDS011;8286;51.274;9.542;2024-02-14T03:15:12;3.03;;;1.53;;
16352;SDS011;8286;51.274;9.542;2024-02-14T03:17:38;1.20;;;1.10;;
16352;SDS011;8286;51.274;9.542;2024-02-14T03:20:05;1.80;;;1.20;;
16352;SDS011;8286;51.274;9.542;2024-02-14T03:22:37;2.07;;;1.40;;
16352;SDS011;8286;51.274;9.542;2024-02-14T03:25:07;3.97;;;1.20;;
16352;SDS011;8286;51.274;9.542;2024-02-14T03:27:34;1.90;;;1.20;;
16352;SDS011;8286;51.274;9.542;2024-02-14T03:30:02;1.67;;;1.57;;
16352;SDS011;8286;51.274;9.542;2024-02-14T03:32:30;2.60;;;1.60;;
16352;SDS011;8286;51.274;9.542;2024-02-14T03:34:56;3.23;;;1.40;;
16352;SDS011;8286;51.274;9.542;2024-02-14T03:37:23;1.40;;;1.30;;
16352;SDS011;8286;51.274;9.542;2024-02-14T03:39:50;3.20;;;1.60;;
16352;SDS011;8286;51.274;9.542;2024-02-14T03:42:17;2.60;;;1.63;;
16352;SDS011;8286;51.274;9.542;2024-02-14T03:44:44;4.03;;;1.50;;
16352;SDS011;8286;51.274;9.542;2024-02-14T03:47:11;2.67;;;1.37;;
16352;SDS011;8286;51.274;9.542;2024-02-14T03:49:39;3.93;;;2.00;;
16352;SDS011;8286;51.274;9.542;2024-02-14T03:52:06;1.73;;;1.37;;
16352;SDS011;8286;51.274;9.542;2024-02-14T03:54:35;2.40;;;1.50;;
16352;SDS011;8286;51.274;9.542;2024-02-14T03:57:01;5.00;;;1.40;;
16352;SDS011;8286;51.274;9.542;2024-02-14T03:59:29;1.50;;;1.37;;
16352;SDS011;8286;51.274;9.542;2024-02-14T04:01:56;6.00;;;1.80;;
16352;SDS011;8286;51.274;9.542;2024-02-14T04:04:23;4.30;;;1.70;;
16352;SDS011;8286;51.274;9.542;2024-02-14T04:06:51;2.90;;;1.30;;
16352;SDS011;8286;51.274;9.542;2024-02-14T04:09:17;1.57;;;1.40;;
16352;SDS011;8286;51.274;9.542;2024-02-14T04:11:44;4.97;;;1.57;;
16352;SDS011;8286;51.274;9.542;2024-02-14T04:14:10;2.93;;;1.50;;
16352;SDS011;8286;51.274;9.542;2024-02-14T04:16:37;5.07;;;1.23;;
16352;SDS011;8286;51.274;9.542;2024-02-14T04:19:03;3.83;;;1.40;;
16352;SDS011;8286;51.274;9.542;2024-02-14T04:21:30;10.40;;;2.30;;
16352;SDS011;8286;51.274;9.542;2024-02-14T04:23:59;3.30;;;1.60;;
16352;SDS011;8286;51.274;9.542;2024-02-14T04:26:25;3.10;;;1.60;;
16352;SDS011;8286;51.274;9.542;2024-02-14T04:28:52;2.37;;;1.33;;
16352;SDS011;8286;51.274;9.542;2024-02-14T04:31:18;1.80;;;1.30;;
16352;SDS011;8286;51.274;9.542;2024-02-14T04:33:45;2.17;;;1.70;;
16352;SDS011;8286;51.274;9.542;2024-02-14T04:36:16;4.50;;;1.33;;
16352;SDS011;8286;51.274;9.542;2024-02-14T04:38:43;4.07;;;1.50;;
16352;SDS011;8286;51.274;9.542;2024-02-14T04:41:11;3.20;;;1.63;;
16352;SDS011;8286;51.274;9.542;2024-02-14T04:43:39;2.40;;;1.60;;
16352;SDS011;8286;51.274;9.542;2024-02-14T04:46:05;3.63;;;2.03;;
16352;SDS011;8286;51.274;9.542;2024-02-14T04:48:33;3.27;;;1.47;;
16352;SDS011;8286;51.274;9.542;2024-02-14T04:51:00;5.50;;;1.80;;
16352;SDS011;8286;51.274;9.542;2024-02-14T04:53:27;2.87;;;1.60;;
16352;SDS011;8286;51.274;9.542;2024-02-14T04:55:53;5.37;;;1.53;;
16352;SDS011;8286;51.274;9.542;2024-02-14T04:58:21;5.63;;;1.80;;
16352;SDS011;8286;51.274;9.542;2024-02-14T05:00:48;2.00;;;1.80;;
16352;SDS011;8286;51.274;9.542;2024-02-14T05:03:14;2.77;;;1.83;;
16352;SDS011;8286;51.274;9.542;2024-02-14T05:05:42;3.17;;;1.57;;
16352;SDS011;8286;51.274;9.542;2024-02-14T05:08:09;1.77;;;1.30;;
16352;SDS011;8286;51.274;9.542;2024-02-14T05:10:35;1.63;;;1.40;;
16352;SDS011;8286;51.274;9.542;2024-02-14T05:13:02;3.53;;;1.53;;
16352;SDS011;8286;51.274;9.542;2024-02-14T05:15:30;2.47;;;1.90;;
16352;SDS011;8286;51.274;9.542;2024-02-14T05:17:56;3.97;;;1.57;;
16352;SDS011;8286;51.274;9.542;2024-02-14T05:20:23;2.13;;;1.93;;
16352;SDS011;8286;51.274;9.542;2024-02-14T05:22:49;5.07;;;2.07;;
16352;SDS011;8286;51.274;9.542;2024-02-14T05:25:16;3.67;;;2.03;;
16352;SDS011;8286;51.274;9.542;2024-02-14T05:27:43;4.93;;;1.70;;
16352;SDS011;8286;51.274;9.542;2024-02-14T05:30:10;1.60;;;1.50;;
16352;SDS011;8286;51.274;9.542;2024-02-14T05:32:38;1.63;;;1.53;;
16352;SDS011;8286;51.274;9.542;2024-02-14T05:35:05;3.57;;;1.57;;
16352;SDS011;8286;51.274;9.542;2024-02-14T05:37:33;1.70;;;1.60;;
16352;SDS011;8286;51.274;9.542;2024-02-14T05:39:59;6.73;;;1.80;;
16352;SDS011;8286;51.274;9.542;2024-02-14T05:42:26;1.70;;;1.60;;
16352;SDS011;8286;51.274;9.542;2024-02-14T05:44:52;2.33;;;1.60;;
16352;SDS011;8286;51.274;9.542;2024-02-14T05:47:19;4.07;;;1.50;;
16352;SDS011;8286;51.274;9.542;2024-02-14T05:49:47;1.77;;;1.60;;
16352;SDS011;8286;51.274;9.542;2024-02-14T05:52:13;3.47;;;1.63;;
16352;SDS011;8286;51.274;9.542;2024-02-14T05:54:41;3.90;;;1.67;;
16352;SDS011;8286;51.274;9.542;2024-02-14T05:57:07;2.80;;;1.60;;
16352;SDS011;8286;51.274;9.542;2024-02-14T05:59:34;4.13;;;1.50;;
16352;SDS011;8286;51.274;9.542;2024-02-14T06:02:00;1.87;;;1.53;;
16352;SDS011;8286;51.274;9.542;2024-02-14T06:04:28;6.10;;;1.90;;
16352;SDS011;8286;51.274;9.542;2024-02-14T06:06:56;2.53;;;1.60;;
16352;SDS011;8286;51.274;9.542;2024-02-14T06:09:22;4.60;;;1.70;;
16352;SDS011;8286;51.274;9.542;2024-02-14T06:11:49;3.37;;;1.57;;
16352;SDS011;8286;51.274;9.542;2024-02-14T06:14:16;5.47;;;1.90;;
16352;SDS011;8286;51.274;9.542;2024-02-14T06:16:43;3.00;;;1.60;;
16352;SDS011;8286;51.274;9.542;2024-02-14T06:19:10;4.30;;;1.87;;
16352;SDS011;8286;51.274;9.542;2024-02-14T06:21:37;3.43;;;1.70;;
16352;SDS011;8286;51.274;9.542;2024-02-14T06:24:05;2.40;;;2.20;;
16352;SDS011;8286;51.274;9.542;2024-02-14T06:26:32;3.57;;;1.90;;
16352;SDS011;8286;51.274;9.542;2024-02-14T06:28:59;4.30;;;1.90;;
16352;SDS011;8286;51.274;9.542;2024-02-14T06:31:25;4.00;;;1.93;;
16352;SDS011;8286;51.274;9.542;2024-02-14T06:33:52;6.10;;;1.87;;
16352;SDS011;8286;51.274;9.542;2024-02-14T06:36:18;4.17;;;1.97;;
16352;SDS011;8286;51.274;9.542;2024-02-14T06:38:45;2.83;;;1.90;;
16352;SDS011;8286;51.274;9.542;2024-02-14T06:41:13;3.33;;;1.90;;
16352;SDS011;8286;51.274;9.542;2024-02-14T06:43:39;2.37;;;1.90;;
16352;SDS011;8286;51.274;9.542;2024-02-14T06:46:06;2.10;;;1.80;;
16352;SDS011;8286;51.274;9.542;2024-02-14T06:48:32;2.00;;;1.80;;
16352;SDS011;8286;51.274;9.542;2024-02-14T06:50:59;4.20;;;1.83;;
16352;SDS011;8286;51.274;9.542;2024-02-14T06:53:26;3.23;;;1.90;;
16352;SDS011;8286;51.274;9.542;2024-02-14T06:55:52;2.37;;;1.90;;
16352;SDS011;8286;51.274;9.542;2024-02-14T06:58:20;1.90;;;1.80;;
16352;SDS011;8286;51.274;9.542;2024-02-14T07:00:46;6.30;;;2.23;;
16352;SDS011;8286;51.274;9.542;2024-02-14T07:03:13;4.03;;;2.00;;
16352;SDS011;8286;51.274;9.542;2024-02-14T07:05:39;7.23;;;2.47;;
16352;SDS011;8286;51.274;9.542;2024-02-14T07:08:06;2.30;;;2.10;;
16352;SDS011;8286;51.274;9.542;2024-02-14T07:10:33;3.93;;;2.10;;
16352;SDS011;8286;51.274;9.542;2024-02-14T07:13:00;2.33;;;2.10;;
16352;SDS011;8286;51.274;9.542;2024-02-14T07:15:27;3.43;;;2.17;;
16352;SDS011;8286;51.274;9.542;2024-02-14T07:17:54;4.37;;;2.27;;
16352;SDS011;8286;51.274;9.542;2024-02-14T07:20:22;3.47;;;2.07;;
16352;SDS011;8286;51.274;9.542;2024-02-14T07:22:51;3.17;;;2.33;;
16352;SDS011;8286;51.274;9.542;2024-02-14T07:25:18;4.40;;;2.27;;
16352;SDS011;8286;51.274;9.542;2024-02-14T07:27:44;4.20;;;2.40;;
16352;SDS011;8286;51.274;9.542;2024-02-14T07:30:13;2.43;;;2.10;;
16352;SDS011;8286;51.274;9.542;2024-02-14T07:32:41;2.87;;;2.33;;
16352;SDS011;8286;51.274;9.542;2024-02-14T07:35:08;2.83;;;2.27;;
16352;SDS011;8286;51.274;9.542;2024-02-14T07:37:35;2.70;;;2.20;;
16352;SDS011;8286;51.274;9.542;2024-02-14T07:40:03;2.70;;;2.30;;
16352;SDS011;8286;51.274;9.542;2024-02-14T07:42:30;3.23;;;2.17;;
16352;SDS011;8286;51.274;9.542;2024-02-14T07:44:57;2.50;;;2.07;;
16352;SDS011;8286;51.274;9.542;2024-02-14T07:47:23;4.50;;;2.27;;
16352;SDS011;8286;51.274;9.542;2024-02-14T07:49:51;2.70;;;2.30;;
16352;SDS011;8286;51.274;9.542;2024-02-14T07:52:18;5.80;;;2.03;;
16352;SDS011;8286;51.274;9.542;2024-02-14T07:54:45;3.17;;;2.33;;
16352;SDS011;8286;51.274;9.542;2024-02-14T07:57:11;2.27;;;2.07;;
16352;SDS011;8286;51.274;9.542;2024-02-14T07:59:38;3.90;;;2.60;;
16352;SDS011;8286;51.274;9.542;2024-02-14T08:02:04;2.53;;;2.13;;
16352;SDS011;8286;51.274;9.542;2024-02-14T08:04:31;8.47;;;2.40;;
16352;SDS011;8286;51.274;9.542;2024-02-14T08:06:59;5.37;;;2.57;;
16352;SDS011;8286;51.274;9.542;2024-02-14T08:09:25;5.27;;;2.60;;
16352;SDS011;8286;51.274;9.542;2024-02-14T08:11:52;4.60;;;3.07;;
16352;SDS011;8286;51.274;9.542;2024-02-14T08:14:19;2.93;;;2.20;;
16352;SDS011;8286;51.274;9.542;2024-02-14T08:16:45;4.73;;;3.10;;
16352;SDS011;8286;51.274;9.542;2024-02-14T08:19:12;6.30;;;2.80;;
16352;SDS011;8286;51.274;9.542;2024-02-14T08:21:38;5.73;;;2.77;;
16352;SDS011;8286;51.274;9.542;2024-02-14T08:24:08;4.10;;;2.50;;
16352;SDS011;8286;51.274;9.542;2024-02-14T08:26:34;6.43;;;2.47;;
16352;SDS011;8286;51.274;9.542;2024-02-14T08:29:01;3.53;;;2.50;;
16352;SDS011;8286;51.274;9.542;2024-02-14T08:31:28;3.07;;;2.27;;
16352;SDS011;8286;51.274;9.542;2024-02-14T08:33:55;2.87;;;2.57;;
16352;SDS011;8286;51.274;9.542;2024-02-14T08:36:22;7.90;;;2.53;;
16352;SDS011;8286;51.274;9.542;2024-02-14T08:38:49;4.87;;;2.90;;
16352;SDS011;8286;51.274;9.542;2024-02-14T08:41:16;6.07;;;3.10;;
16352;SDS011;8286;51.274;9.542;2024-02-14T08:43:44;4.90;;;3.00;;
16352;SDS011;8286;51.274;9.542;2024-02-14T08:46:11;4.67;;;2.87;;
16352;SDS011;8286;51.274;9.542;2024-02-14T08:48:37;7.37;;;3.40;;
16352;SDS011;8286;51.274;9.542;2024-02-14T08:51:07;3.60;;;2.67;;
16352;SDS011;8286;51.274;9.542;2024-02-14T08:53:34;3.53;;;2.80;;
16352;SDS011;8286;51.274;9.542;2024-02-14T08:56:00;4.17;;;2.57;;
16352;SDS011;8286;51.274;9.542;2024-02-14T08:58:28;6.67;;;2.90;;
16352;SDS011;8286;51.274;9.542;2024-02-14T09:00:55;5.27;;;2.87;;
16352;SDS011;8286;51.274;9.542;2024-02-14T09:03:21;4.53;;;2.97;;
16352;SDS011;8286;51.274;9.542;2024-02-14T09:05:48;4.30;;;3.00;;
16352;SDS011;8286;51.274;9.542;2024-02-14T09:08:15;4.40;;;3.40;;
16352;SDS011;8286;51.274;9.542;2024-02-14T09:10:41;3.60;;;2.93;;
16352;SDS011;8286;51.274;9.542;2024-02-14T09:13:08;6.27;;;2.80;;
16352;SDS011;8286;51.274;9.542;2024-02-14T09:15:36;6.33;;;3.13;;
16352;SDS011;8286;51.274;9.542;2024-02-14T09:18:03;4.03;;;2.83;;
16352;SDS011;8286;51.274;9.542;2024-02-14T09:20:29;2.83;;;2.63;;
16352;SDS011;8286;51.274;9.542;2024-02-14T09:22:56;3.00;;;2.80;;
16352;SDS011;8286;51.274;9.542;2024-02-14T09:25:23;4.83;;;3.00;;
16352;SDS011;8286;51.274;9.542;2024-02-14T09:27:50;5.23;;;2.87;;
16352;SDS011;8286;51.274;9.542;2024-02-14T09:30:16;6.13;;;3.10;;
16352;SDS011;8286;51.274;9.542;2024-02-14T09:32:44;6.90;;;2.90;;
16352;SDS011;8286;51.274;9.542;2024-02-14T09:35:12;3.97;;;3.00;;
16352;SDS011;8286;51.274;9.542;2024-02-14T09:37:39;4.07;;;3.10;;
16352;SDS011;8286;51.274;9.542;2024-02-14T09:40:06;8.53;;;3.00;;
16352;SDS011;8286;51.274;9.542;2024-02-14T09:42:38;8.33;;;3.40;;
16352;SDS011;8286;51.274;9.542;2024-02-14T09:45:09;2.70;;;2.50;;
16352;SDS011;8286;51.274;9.542;2024-02-14T09:47:36;6.23;;;3.33;;
16352;SDS011;8286;51.274;9.542;2024-02-14T09:50:05;5.77;;;3.23;;
16352;SDS011;8286;51.274;9.542;2024-02-14T09:52:33;3.70;;;2.90;;
16352;SDS011;8286;51.274;9.542;2024-02-14T09:55:00;5.83;;;3.30;;
16352;SDS011;8286;51.274;9.542;2024-02-14T09:57:30;5.23;;;2.90;;
16352;SDS011;8286;51.274;9.542;2024-02-14T09:59:57;4.90;;;3.00;;
16352;SDS011;8286;51.274;9.542;2024-02-14T10:02:24;9.97;;;3.33;;
16352;SDS011;8286;51.274;9.542;2024-02-14T10:04:51;3.87;;;3.00;;
16352;SDS011;8286;51.274;9.542;2024-02-14T10:07:19;5.07;;;3.37;;
16352;SDS011;8286;51.274;9.542;2024-02-14T10:09:45;4.93;;;3.13;;
16352;SDS011;8286;51.274;9.542;2024-02-14T10:12:12;6.03;;;3.20;;
16352;SDS011;8286;51.274;9.542;2024-02-14T10:14:38;7.70;;;3.00;;
16352;SDS011;8286;51.274;9.542;2024-02-14T10:17:05;5.33;;;3.23;;
16352;SDS011;8286;51.274;9.542;2024-02-14T10:19:32;3.93;;;3.10;;
16352;SDS011;8286;51.274;9.542;2024-02-14T10:21:59;7.37;;;3.93;;
16352;SDS011;8286;51.274;9.542;2024-02-14T10:24:29;7.23;;;3.20;;
16352;SDS011;8286;51.274;9.542;2024-02-14T10:26:58;4.13;;;3.27;;
16352;SDS011;8286;51.274;9.542;2024-02-14T10:29:25;4.07;;;3.17;;
16352;SDS011;8286;51.274;9.542;2024-02-14T10:31:50;6.00;;;3.23;;
16352;SDS011;8286;51.274;9.542;2024-02-14T10:34:18;4.20;;;3.50;;
16352;SDS011;8286;51.274;9.542;2024-02-14T10:36:46;6.03;;;3.17;;
16352;SDS011;8286;51.274;9.542;2024-02-14T10:39:13;5.20;;;3.00;;
16352;SDS011;8286;51.274;9.542;2024-02-14T10:41:43;3.47;;;3.00;;
16352;SDS011;8286;51.274;9.542;2024-02-14T10:44:09;3.97;;;2.77;;
16352;SDS011;8286;51.274;9.542;2024-02-14T10:46:37;9.70;;;3.37;;
16352;SDS011;8286;51.274;9.542;2024-02-14T10:49:05;3.67;;;2.80;;
16352;SDS011;8286;51.274;9.542;2024-02-14T10:51:33;3.80;;;3.23;;
16352;SDS011;8286;51.274;9.542;2024-02-14T10:54:00;3.70;;;2.67;;
16352;SDS011;8286;51.274;9.542;2024-02-14T10:56:31;7.50;;;2.90;;
16352;SDS011;8286;51.274;9.542;2024-02-14T10:58:59;6.33;;;2.63;;
16352;SDS011;8286;51.274;9.542;2024-02-14T11:01:27;5.77;;;2.40;;
16352;SDS011;8286;51.274;9.542;2024-02-14T11:03:56;5.07;;;2.90;;
16352;SDS011;8286;51.274;9.542;2024-02-14T11:06:23;3.97;;;2.73;;
16352;SDS011;8286;51.274;9.542;2024-02-14T11:08:57;7.37;;;2.90;;
16352;SDS011;8286;51.274;9.542;2024-02-14T11:11:27;3.23;;;2.40;;
16352;SDS011;8286;51.274;9.542;2024-02-14T11:13:54;3.60;;;2.60;;
16352;SDS011;8286;51.274;9.542;2024-02-14T11:16:24;6.47;;;3.10;;
16352;SDS011;8286;51.274;9.542;2024-02-14T11:18:53;5.90;;;2.70;;
16352;SDS011;8286;51.274;9.542;2024-02-14T11:21:19;4.17;;;2.97;;
16352;SDS011;8286;51.274;9.542;2024-02-14T11:23:52;4.90;;;2.17;;
16352;SDS011;8286;51.274;9.542;2024-02-14T11:26:19;3.73;;;2.80;;
16352;SDS011;8286;51.274;9.542;2024-02-14T11:28:48;3.17;;;2.87;;
16352;SDS011;8286;51.274;9.542;2024-02-14T11:31:16;6.30;;;2.67;;
16352;SDS011;8286;51.274;9.542;2024-02-14T11:33:44;4.77;;;2.90;;
16352;SDS011;8286;51.274;9.542;2024-02-14T11:36:11;3.00;;;2.50;;
16352;SDS011;8286;51.274;9.542;2024-02-14T11:38:40;3.87;;;2.83;;
16352;SDS011;8286;51.274;9.542;2024-02-14T11:41:06;2.83;;;2.30;;
16352;SDS011;8286;51.274;9.542;2024-02-14T11:43:34;6.30;;;2.80;;
16352;SDS011;8286;51.274;9.542;2024-02-14T11:46:01;3.73;;;2.03;;
16352;SDS011;8286;51.274;9.542;2024-02-14T11:48:29;3.70;;;2.40;;
16352;SDS011;8286;51.274;9.542;2024-02-14T11:50:58;5.83;;;2.50;;
16352;SDS011;8286;51.274;9.542;2024-02-14T11:53:25;3.17;;;2.10;;
16352;SDS011;8286;51.274;9.542;2024-02-14T11:55:53;3.20;;;2.33;;
16352;SDS011;8286;51.274;9.542;2024-02-14T11:58:21;4.03;;;2.60;;
16352;SDS011;8286;51.274;9.542;2024-02-14T12:00:47;2.93;;;2.50;;
16352;SDS011;8286;51.274;9.542;2024-02-14T12:03:15;1.87;;;1.77;;
16352;SDS011;8286;51.274;9.542;2024-02-14T12:05:43;4.57;;;2.47;;
16352;SDS011;8286;51.274;9.542;2024-02-14T12:08:13;3.40;;;2.07;;
16352;SDS011;8286;51.274;9.542;2024-02-14T12:10:42;3.47;;;2.13;;
16352;SDS011;8286;51.274;9.542;2024-02-14T12:13:12;5.10;;;2.57;;
16352;SDS011;8286;51.274;9.542;2024-02-14T12:15:39;3.30;;;1.90;;
16352;SDS011;8286;51.274;9.542;2024-02-14T12:18:06;3.53;;;2.00;;
16352;SDS011;8286;51.274;9.542;2024-02-14T12:20:33;4.10;;;2.30;;
16352;SDS011;8286;51.274;9.542;2024-02-14T12:23:00;3.47;;;2.37;;
16352;SDS011;8286;51.274;9.542;2024-02-14T12:25:29;2.93;;;2.70;;
16352;SDS011;8286;51.274;9.542;2024-02-14T12:27:56;4.00;;;2.17;;
16352;SDS011;8286;51.274;9.542;2024-02-14T12:30:22;3.80;;;2.43;;
16352;SDS011;8286;51.274;9.542;2024-02-14T12:32:57;2.83;;;2.33;;
16352;SDS011;8286;51.274;9.542;2024-02-14T12:35:24;1.93;;;1.83;;
16352;SDS011;8286;51.274;9.542;2024-02-14T12:37:51;2.27;;;2.00;;
16352;SDS011;8286;51.274;9.542;2024-02-14T12:40:19;5.57;;;2.30;;
16352;SDS011;8286;51.274;9.542;2024-02-14T12:42:46;3.27;;;2.13;;
16352;SDS011;8286;51.274;9.542;2024-02-14T12:45:13;5.40;;;2.00;;
16352;SDS011;8286;51.274;9.542;2024-02-14T12:47:40;2.40;;;1.90;;
16352;SDS011;8286;51.274;9.542;2024-02-14T12:50:08;3.70;;;1.97;;
16352;SDS011;8286;51.274;9.542;2024-02-14T12:52:35;2.70;;;1.93;;
16352;SDS011;8286;51.274;9.542;2024-02-14T12:55:01;5.10;;;2.30;;
16352;SDS011;8286;51.274;9.542;2024-02-14T12:57:28;6.80;;;1.80;;
16352;SDS011;8286;51.274;9.542;2024-02-14T12:59:56;4.53;;;2.03;;
16352;SDS011;8286;51.274;9.542;2024-02-14T13:02:22;2.57;;;1.90;;
16352;SDS011;8286;51.274;9.542;2024-02-14T13:04:49;5.57;;;2.37;;
16352;SDS011;8286;51.274;9.542;2024-02-14T13:07:16;4.97;;;2.40;;
16352;SDS011;8286;51.274;9.542;2024-02-14T13:09:42;5.10;;;2.20;;
16352;SDS011;8286;51.274;9.542;2024-02-14T13:12:09;3.40;;;2.07;;
16352;SDS011;8286;51.274;9.542;2024-02-14T13:14:36;3.33;;;2.00;;
16352;SDS011;8286;51.274;9.542;2024-02-14T13:17:04;3.30;;;2.07;;
16352;SDS011;8286;51.274;9.542;2024-02-14T13:19:31;2.97;;;1.70;;
16352;SDS011;8286;51.274;9.542;2024-02-14T13:21:58;2.47;;;2.00;;
16352;SDS011;8286;51.274;9.542;2024-02-14T13:24:24;1.70;;;1.60;;
16352;SDS011;8286;51.274;9.542;2024-02-14T13:26:51;4.30;;;1.93;;
16352;SDS011;8286;51.274;9.542;2024-02-14T13:29:17;3.53;;;1.80;;
16352;SDS011;8286;51.274;9.542;2024-02-14T13:31:44;2.07;;;1.87;;
16352;SDS011;8286;51.274;9.542;2024-02-14T13:34:12;2.10;;;1.90;;
16352;SDS011;8286;51.274;9.542;2024-02-14T13:36:40;2.17;;;1.80;;
16352;SDS011;8286;51.274;9.542;2024-02-14T13:39:06;4.33;;;2.17;;
16352;SDS011;8286;51.274;9.542;2024-02-14T13:41:33;5.17;;;2.00;;
16352;SDS011;8286;51.274;9.542;2024-02-14T13:44:01;3.87;;;1.90;;
16352;SDS011;8286;51.274;9.542;2024-02-14T13:46:27;5.57;;;2.57;;
16352;SDS011;8286;51.274;9.542;2024-02-14T13:48:54;2.37;;;2.17;;
16352;SDS011;8286;51.274;9.542;2024-02-14T13:51:22;2.77;;;2.33;;
16352;SDS011;8286;51.274;9.542;2024-02-14T13:53:48;4.37;;;2.53;;
16352;SDS011;8286;51.274;9.542;2024-02-14T13:56:15;1.83;;;1.73;;
16352;SDS011;8286;51.274;9.542;2024-02-14T13:58:42;3.23;;;2.27;;
16352;SDS011;8286;51.274;9.542;2024-02-14T14:01:09;1.70;;;1.60;;
16352;SDS011;8286;51.274;9.542;2024-02-14T14:03:36;2.23;;;2.03;;
16352;SDS011;8286;51.274;9.542;2024-02-14T14:06:03;4.77;;;2.40;;
16352;SDS011;8286;51.274;9.542;2024-02-14T14:08:34;2.00;;;1.90;;
16352;SDS011;8286;51.274;9.542;2024-02-14T14:11:01;3.23;;;1.70;;
16352;SDS011;8286;51.274;9.542;2024-02-14T14:13:28;2.87;;;2.10;;
16352;SDS011;8286;51.274;9.542;2024-02-14T14:15:56;2.07;;;1.70;;
16352;SDS011;8286;51.274;9.542;2024-02-14T14:18:22;6.17;;;1.77;;
16352;SDS011;8286;51.274;9.542;2024-02-14T14:20:49;4.23;;;1.70;;
16352;SDS011;8286;51.274;9.542;2024-02-14T14:23:16;2.30;;;2.00;;
16352;SDS011;8286;51.274;9.542;2024-02-14T14:25:43;3.03;;;1.73;;
16352;SDS011;8286;51.274;9.542;2024-02-14T14:28:10;2.33;;;1.87;;
16352;SDS011;8286;51.274;9.542;2024-02-14T14:30:37;4.97;;;1.70;;
16352;SDS011;8286;51.274;9.542;2024-02-14T14:33:03;2.17;;;1.80;;
16352;SDS011;8286;51.274;9.542;2024-02-14T14:35:30;3.13;;;2.10;;
16352;SDS011;8286;51.274;9.542;2024-02-14T14:37:58;3.20;;;1.87;;
16352;SDS011;8286;51.274;9.542;2024-02-14T14:40:24;2.40;;;1.93;;
16352;SDS011;8286;51.274;9.542;2024-02-14T14:42:53;3.33;;;1.77;;
16352;SDS011;8286;51.274;9.542;2024-02-14T14:45:19;3.17;;;2.00;;
16352;SDS011;8286;51.274;9.542;2024-02-14T14:47:46;1.80;;;1.70;;
16352;SDS011;8286;51.274;9.542;2024-02-14T14:50:11;3.90;;;1.63;;
16352;SDS011;8286;51.274;9.542;2024-02-14T14:52:38;2.50;;;1.87;;
16352;SDS011;8286;51.274;9.542;2024-02-14T14:55:04;2.83;;;1.60;;
16352;SDS011;8286;51.274;9.542;2024-02-14T14:57:31;4.00;;;1.93;;
16352;SDS011;8286;51.274;9.542;2024-02-14T15:00:01;4.90;;;2.10;;